createdAt,value
2019-03-04T00:01:58.706Z,36.00
2019-03-04T00:04:28.824Z,36.00
2019-03-04T00:06:58.937Z,36.10
2019-03-04T00:09:28.991Z,36.10
2019-03-04T00:11:59.034Z,36.00
2019-03-04T00:14:28.943Z,36.00
2019-03-04T00:16:58.887Z,36.00
2019-03-04T00:19:29.000Z,36.00
2019-03-04T00:21:59.018Z,36.10
2019-03-04T00:24:29.038Z,36.00
2019-03-04T00:26:59.236Z,36.00
2019-03-04T00:29:29.142Z,36.60
2019-03-04T00:31:59.135Z,36.00
2019-03-04T00:34:29.275Z,35.90
2019-03-04T00:36:59.253Z,35.90
2019-03-04T00:39:29.381Z,35.90
2019-03-04T00:41:59.332Z,35.90
2019-03-04T00:44:29.243Z,35.90
2019-03-04T00:46:59.222Z,35.90
2019-03-04T00:49:29.145Z,35.80
2019-03-04T00:51:59.061Z,35.80
2019-03-04T00:54:29.034Z,35.80
2019-03-04T00:56:59.060Z,35.80
2019-03-04T00:59:31.315Z,35.80
2019-03-04T01:02:00.706Z,35.80
2019-03-04T01:04:30.829Z,35.80
2019-03-04T01:07:00.789Z,35.90
2019-03-04T01:09:30.694Z,35.80
2019-03-04T01:12:00.824Z,35.80
2019-03-04T01:14:30.736Z,35.80
2019-03-04T01:17:00.799Z,35.90
2019-03-04T01:19:30.719Z,35.80
2019-03-04T01:22:00.750Z,35.90
2019-03-04T01:24:30.842Z,35.90
2019-03-04T01:27:00.751Z,35.80
2019-03-04T01:29:30.811Z,36.20
2019-03-04T01:32:00.800Z,35.80
2019-03-04T01:34:30.834Z,35.70
2019-03-04T01:37:00.759Z,35.90
2019-03-04T01:39:30.849Z,35.80
2019-03-04T01:42:00.911Z,35.70
2019-03-04T01:44:30.931Z,35.80
2019-03-04T01:47:00.915Z,35.70
2019-03-04T01:49:30.838Z,35.70
2019-03-04T01:52:00.882Z,35.70
2019-03-04T01:54:30.846Z,35.70
2019-03-04T01:57:00.814Z,35.70
2019-03-04T01:59:30.897Z,35.70
2019-03-04T02:02:00.821Z,35.70
2019-03-04T02:04:30.718Z,35.70
2019-03-04T02:07:00.825Z,35.70
2019-03-04T02:09:30.828Z,35.60
2019-03-04T02:12:00.937Z,35.70
2019-03-04T02:14:30.822Z,35.70
2019-03-04T02:17:00.979Z,35.70
2019-03-04T02:19:30.976Z,35.70
2019-03-04T02:22:00.883Z,35.70
2019-03-04T02:24:30.781Z,35.70
2019-03-04T02:27:01.326Z,35.70
2019-03-04T02:29:31.377Z,35.80
2019-03-04T02:32:01.434Z,35.80
2019-03-04T02:34:31.436Z,35.80
2019-03-04T02:37:01.452Z,35.80
2019-03-04T02:39:31.417Z,35.80
2019-03-04T02:42:01.418Z,35.80
2019-03-04T02:44:31.443Z,35.80
2019-03-04T02:47:01.426Z,35.80
2019-03-04T02:49:31.491Z,35.90
2019-03-04T02:52:01.496Z,35.80
2019-03-04T02:54:31.417Z,35.90
2019-03-04T02:57:01.395Z,35.90
2019-03-04T02:59:31.283Z,35.80
2019-03-04T03:02:01.260Z,35.80
2019-03-04T03:04:31.179Z,35.80
2019-03-04T03:07:01.181Z,35.90
2019-03-04T03:09:31.215Z,35.90
2019-03-04T03:12:01.151Z,35.90
2019-03-04T03:14:31.249Z,35.80
2019-03-04T03:17:01.224Z,35.90
2019-03-04T03:19:31.248Z,35.90
2019-03-04T03:22:01.142Z,35.90
2019-03-04T03:24:31.360Z,35.90
2019-03-04T03:27:01.300Z,35.90
2019-03-04T03:29:31.327Z,35.90
2019-03-04T03:32:01.323Z,35.90
2019-03-04T03:34:31.289Z,36.00
2019-03-04T03:37:01.277Z,35.90
2019-03-04T03:39:31.188Z,36.00
2019-03-04T03:42:01.379Z,36.00
2019-03-04T03:44:31.391Z,36.10
2019-03-04T03:47:01.546Z,36.00
2019-03-04T03:49:31.492Z,36.00
2019-03-04T03:52:01.650Z,36.10
2019-03-04T03:54:31.623Z,36.00
2019-03-04T03:57:01.602Z,36.00
2019-03-04T03:59:31.622Z,36.10
2019-03-04T04:02:01.671Z,36.10
2019-03-04T04:04:31.756Z,36.10
2019-03-04T04:07:01.907Z,36.00
2019-03-04T04:09:31.914Z,36.10
2019-03-04T04:12:01.895Z,36.00
2019-03-04T04:14:31.951Z,36.00
2019-03-04T04:17:02.197Z,36.00
2019-03-04T04:19:32.296Z,35.90
2019-03-04T04:22:02.341Z,35.90
2019-03-04T04:24:32.301Z,35.80
2019-03-04T04:27:02.265Z,35.80
2019-03-04T04:29:35.362Z,35.70
2019-03-04T04:32:05.330Z,35.70
2019-03-04T04:34:35.246Z,35.60
2019-03-04T04:37:05.397Z,35.80
2019-03-04T04:39:35.406Z,35.60
2019-03-04T04:42:05.314Z,35.60
2019-03-04T04:44:35.207Z,35.60
2019-03-04T04:47:08.901Z,35.70
2019-03-04T04:49:39.048Z,35.50
2019-03-04T04:52:09.166Z,35.60
2019-03-04T04:54:39.058Z,35.60
2019-03-04T04:57:09.451Z,35.60
2019-03-04T04:59:39.410Z,35.60
2019-03-04T05:02:09.410Z,35.50
2019-03-04T05:04:39.484Z,35.60
2019-03-04T05:07:09.482Z,35.50
2019-03-04T05:09:39.400Z,35.50
2019-03-04T05:12:09.410Z,35.50
2019-03-04T05:14:39.405Z,35.40
2019-03-04T05:17:09.354Z,35.50
2019-03-04T05:19:39.290Z,35.40
2019-03-04T05:22:09.318Z,35.40
2019-03-04T05:24:39.447Z,35.40
2019-03-04T05:27:09.582Z,36.00
2019-03-04T05:29:39.621Z,35.30
2019-03-04T05:32:09.725Z,35.30
2019-03-04T05:34:39.687Z,35.20
2019-03-04T05:37:09.616Z,35.20
2019-03-04T05:39:39.641Z,35.20
2019-03-04T05:42:09.725Z,35.20
2019-03-04T05:44:39.673Z,35.10
2019-03-04T05:47:09.586Z,35.10
2019-03-04T05:49:39.684Z,35.20
2019-03-04T05:52:09.557Z,35.20
2019-03-04T05:54:39.598Z,35.30
2019-03-04T05:57:09.484Z,35.40
2019-03-04T05:59:39.434Z,35.50
2019-03-04T06:02:12.953Z,35.50
2019-03-04T06:04:45.039Z,35.50
2019-03-04T06:07:34.806Z,35.60
2019-03-04T06:10:05.814Z,35.60
2019-03-04T06:12:35.746Z,35.70
2019-03-04T06:15:06.688Z,35.80
2019-03-04T06:17:36.692Z,35.80
2019-03-04T06:20:07.816Z,35.90
2019-03-04T06:22:37.803Z,35.90
2019-03-04T06:25:09.975Z,35.80
2019-03-04T06:27:39.925Z,35.80
2019-03-04T06:30:13.357Z,35.80
2019-03-04T06:32:43.342Z,35.90
2019-03-04T06:35:13.614Z,35.80
2019-03-04T06:37:43.710Z,35.90
2019-03-04T06:40:14.567Z,35.90
2019-03-04T06:42:44.471Z,35.90
2019-03-04T06:45:15.602Z,35.90
2019-03-04T06:47:45.732Z,36.00
2019-03-04T06:50:46.540Z,36.00
2019-03-04T06:53:20.182Z,36.10
2019-03-04T06:56:11.181Z,36.20
2019-03-04T06:58:44.190Z,36.20
2019-03-04T07:01:34.257Z,36.20
2019-03-04T07:04:18.029Z,36.20
2019-03-04T07:06:48.130Z,36.20
2019-03-04T07:09:19.782Z,36.30
2019-03-04T07:11:54.176Z,36.20
2019-03-04T07:14:24.207Z,36.20
2019-03-04T07:16:54.655Z,36.20
2019-03-04T07:19:38.740Z,36.20
2019-03-04T07:22:11.022Z,36.20
2019-03-04T07:24:40.359Z,36.30
2019-03-04T07:27:10.334Z,36.20
2019-03-04T07:29:40.285Z,36.20
2019-03-04T07:32:10.372Z,36.20
2019-03-04T07:34:41.376Z,36.20
2019-03-04T07:37:11.285Z,36.20
2019-03-04T07:39:41.252Z,36.30
2019-03-04T07:42:11.356Z,36.30
2019-03-04T07:44:41.349Z,36.30
2019-03-04T07:47:11.800Z,36.20
2019-03-04T07:49:41.728Z,36.30
2019-03-04T07:52:11.641Z,36.30
2019-03-04T07:54:41.644Z,36.30
2019-03-04T07:57:11.521Z,36.30
2019-03-04T07:59:41.673Z,36.30
2019-03-04T08:02:11.813Z,36.40
2019-03-04T08:04:41.726Z,36.40
2019-03-04T08:07:42.971Z,36.40
2019-03-04T08:10:37.855Z,36.40
2019-03-04T08:13:20.515Z,36.50
2019-03-04T08:15:53.295Z,36.60
2019-03-04T08:18:23.281Z,36.70
2019-03-04T08:20:53.330Z,36.70
2019-03-04T08:23:23.454Z,36.80
2019-03-04T08:25:53.502Z,36.70
2019-03-04T08:28:23.591Z,36.60
2019-03-04T08:30:53.590Z,36.60
2019-03-04T08:33:23.639Z,36.70
2019-03-04T08:35:53.715Z,36.60
2019-03-04T08:38:23.679Z,36.70
2019-03-04T08:40:53.698Z,36.60
2019-03-04T08:43:23.739Z,36.70
2019-03-04T08:45:53.939Z,36.70
2019-03-04T08:48:24.083Z,36.70
2019-03-04T08:50:54.179Z,36.70
2019-03-04T08:53:24.208Z,36.70
2019-03-04T08:55:54.113Z,36.70
2019-03-04T08:58:24.394Z,36.80
2019-03-04T09:00:54.450Z,36.70
2019-03-04T09:03:24.369Z,36.80
2019-03-04T09:05:54.455Z,36.80
2019-03-04T09:08:24.511Z,36.70
2019-03-04T09:10:54.669Z,36.80
2019-03-04T09:13:24.766Z,36.80
2019-03-04T09:15:54.861Z,36.80
2019-03-04T09:18:24.929Z,36.90
2019-03-04T09:20:55.009Z,36.90
2019-03-04T09:23:24.954Z,37.70
2019-03-04T09:26:02.043Z,37.00
2019-03-04T09:28:32.110Z,37.00
2019-03-04T09:31:02.094Z,37.00
2019-03-04T09:33:32.057Z,37.00
2019-03-04T09:36:02.051Z,37.10
2019-03-04T09:38:32.164Z,37.10
2019-03-04T09:41:02.106Z,37.10
2019-03-04T09:43:32.196Z,37.20
2019-03-04T09:46:02.328Z,37.80
2019-03-04T09:48:32.445Z,37.20
2019-03-04T09:51:02.590Z,37.20
2019-03-04T09:53:39.502Z,37.10
2019-03-04T09:56:04.404Z,37.10
2019-03-04T09:58:34.351Z,37.20
2019-03-04T10:01:27.037Z,37.20
2019-03-04T10:04:36.015Z,37.20
2019-03-04T10:07:50.265Z,37.30
2019-03-04T10:11:22.418Z,37.30
2019-03-04T10:14:30.196Z,37.40
2019-03-04T10:17:47.353Z,37.60
2019-03-04T10:20:50.487Z,37.70
2019-03-04T10:23:44.632Z,37.80
2019-03-04T10:26:46.378Z,37.80
2019-03-04T10:29:53.408Z,37.80
2019-03-04T10:33:00.275Z,37.80
2019-03-04T10:35:45.610Z,37.80
2019-03-04T10:38:44.553Z,37.90
2019-03-04T10:41:23.795Z,38.00
2019-03-04T10:44:37.989Z,37.90
2019-03-04T10:47:08.389Z,38.00
2019-03-04T10:49:39.003Z,38.00
2019-03-04T10:52:09.100Z,38.00
2019-03-04T10:54:39.138Z,37.90
2019-03-04T10:57:09.052Z,37.90
2019-03-04T10:59:39.013Z,37.80
2019-03-04T11:02:09.167Z,37.80
2019-03-04T11:04:41.435Z,37.80
2019-03-04T11:07:11.623Z,37.80
2019-03-04T11:09:41.563Z,37.80
2019-03-04T11:12:14.091Z,37.80
2019-03-04T11:14:44.118Z,37.80
2019-03-04T11:17:14.123Z,37.80
2019-03-04T11:19:44.082Z,37.80
2019-03-04T11:22:14.330Z,37.90
2019-03-04T11:24:44.334Z,37.80
2019-03-04T11:27:14.735Z,37.90
2019-03-04T11:29:44.671Z,37.90
2019-03-04T11:32:14.677Z,37.90
2019-03-04T11:34:44.705Z,37.90
2019-03-04T11:37:14.625Z,37.90
2019-03-04T11:40:02.439Z,37.90
2019-03-04T11:42:32.625Z,37.90
2019-03-04T11:45:04.827Z,38.00
2019-03-04T11:47:34.795Z,38.00
2019-03-04T11:50:05.923Z,38.00
2019-03-04T11:52:36.057Z,38.10
2019-03-04T11:55:06.817Z,38.10
2019-03-04T11:57:36.718Z,38.10
2019-03-04T12:00:13.086Z,38.10
2019-03-04T12:02:43.022Z,38.10
2019-03-04T12:05:13.288Z,38.20
2019-03-04T12:07:43.312Z,38.20
2019-03-04T12:10:14.158Z,37.80
2019-03-04T12:12:44.273Z,38.30
2019-03-04T12:15:16.105Z,38.40
2019-03-04T12:17:46.097Z,38.40
2019-03-04T12:20:16.635Z,38.40
2019-03-04T12:22:46.702Z,38.40
2019-03-04T12:25:16.994Z,38.50
2019-03-04T12:27:47.107Z,38.50
2019-03-04T12:30:18.629Z,38.50
2019-03-04T12:32:48.738Z,38.60
2019-03-04T12:35:19.111Z,38.60
2019-03-04T12:37:49.098Z,38.70
2019-03-04T12:40:19.521Z,38.80
2019-03-04T12:42:49.637Z,38.80
2019-03-04T12:45:19.764Z,38.80
2019-03-04T12:47:49.862Z,38.70
2019-03-04T12:50:21.909Z,38.80
2019-03-04T12:52:54.535Z,38.80
2019-03-04T12:55:24.721Z,38.90
2019-03-04T12:57:55.021Z,39.60
2019-03-04T13:00:25.026Z,39.00
2019-03-04T13:02:57.979Z,39.00
2019-03-04T13:05:26.908Z,38.90
2019-03-04T13:07:57.012Z,39.00
2019-03-04T13:10:27.014Z,39.00
2019-03-04T13:12:57.030Z,38.90
2019-03-04T13:15:27.306Z,39.10
2019-03-04T13:17:57.333Z,39.10
2019-03-04T13:20:27.474Z,39.00
2019-03-04T13:22:57.634Z,39.20
2019-03-04T13:25:27.660Z,39.20
2019-03-04T13:28:07.547Z,39.20
2019-03-04T13:30:29.502Z,39.30
2019-03-04T13:32:59.622Z,39.20
2019-03-04T13:35:29.836Z,39.30
2019-03-04T13:37:59.942Z,39.40
2019-03-04T13:40:29.862Z,39.40
2019-03-04T13:43:00.083Z,39.40
2019-03-04T13:45:30.270Z,39.40
2019-03-04T13:48:00.574Z,39.40
2019-03-04T13:50:30.879Z,39.40
2019-03-04T13:53:01.041Z,39.40
2019-03-04T13:55:31.156Z,39.40
2019-03-04T13:58:01.138Z,39.50
2019-03-04T14:00:31.899Z,39.50
2019-03-04T14:03:01.923Z,39.50
2019-03-04T14:05:31.870Z,39.50
2019-03-04T14:08:01.987Z,39.50
2019-03-04T14:10:34.169Z,39.60
2019-03-04T14:13:04.265Z,39.60
2019-03-04T14:15:36.498Z,39.50
2019-03-04T14:18:06.619Z,39.60
2019-03-04T14:20:36.710Z,39.50
2019-03-04T14:23:06.850Z,39.50
2019-03-04T14:25:36.762Z,39.50
2019-03-04T14:28:06.948Z,39.60
2019-03-04T14:30:36.982Z,39.50
2019-03-04T14:33:07.003Z,39.60
2019-03-04T14:35:37.022Z,39.60
2019-03-04T14:38:07.236Z,39.60
2019-03-04T14:40:37.251Z,39.60
2019-03-04T14:43:07.290Z,39.60
2019-03-04T14:45:37.371Z,39.60
2019-03-04T14:48:07.389Z,39.60
2019-03-04T14:50:37.588Z,39.70
2019-03-04T14:53:07.574Z,39.60
2019-03-04T14:55:37.651Z,39.70
2019-03-04T14:58:07.824Z,39.70
2019-03-04T15:00:39.926Z,39.70
2019-03-04T15:03:20.587Z,39.60
2019-03-04T15:05:41.825Z,39.70
2019-03-04T15:08:11.842Z,39.70
2019-03-04T15:10:42.032Z,39.70
2019-03-04T15:13:12.077Z,39.70
2019-03-04T15:15:42.234Z,39.70
2019-03-04T15:18:13.414Z,39.70
2019-03-04T15:20:43.477Z,39.70
2019-03-04T15:23:13.570Z,39.70
2019-03-04T15:25:44.105Z,39.70
2019-03-04T15:28:16.160Z,39.70
2019-03-04T15:30:47.306Z,39.70
2019-03-04T15:33:18.703Z,39.70
2019-03-04T15:35:49.109Z,39.70
2019-03-04T15:38:19.309Z,39.70
2019-03-04T15:40:49.347Z,39.70
2019-03-04T15:43:19.370Z,39.80
2019-03-04T15:45:50.878Z,39.90
2019-03-04T15:48:22.288Z,39.70
2019-03-04T15:50:52.362Z,39.80
2019-03-04T15:53:22.803Z,39.80
2019-03-04T15:55:53.125Z,39.80
2019-03-04T15:58:23.269Z,39.70
2019-03-04T16:00:54.144Z,39.80
2019-03-04T16:03:24.237Z,39.80
2019-03-04T16:05:54.170Z,40.40
2019-03-04T16:08:24.366Z,39.80
2019-03-04T16:10:54.457Z,39.70
2019-03-04T16:13:24.379Z,39.80
2019-03-04T16:15:54.468Z,39.40
2019-03-04T16:18:24.778Z,39.80
2019-03-04T16:20:54.854Z,39.80
2019-03-04T16:23:25.064Z,39.90
2019-03-04T16:25:55.206Z,39.90
2019-03-04T16:28:29.073Z,40.10
2019-03-04T16:30:59.393Z,40.10
2019-03-04T16:33:29.542Z,40.20
2019-03-04T16:35:59.637Z,40.30
2019-03-04T16:38:29.698Z,40.30
2019-03-04T16:40:59.901Z,40.20
2019-03-04T16:43:29.828Z,40.30
2019-03-04T16:45:59.897Z,40.40
2019-03-04T16:48:29.948Z,40.40
2019-03-04T16:51:01.012Z,40.50
2019-03-04T16:53:31.087Z,40.50
2019-03-04T16:56:01.010Z,40.50
2019-03-04T16:58:31.025Z,40.60
2019-03-04T17:01:01.374Z,40.70
2019-03-04T17:03:31.433Z,40.70
2019-03-04T17:06:01.401Z,40.60
2019-03-04T17:08:31.529Z,40.60
2019-03-04T17:11:01.665Z,40.60
2019-03-04T17:13:31.687Z,40.60
2019-03-04T17:16:01.829Z,40.70
2019-03-04T17:18:31.938Z,40.60
2019-03-04T17:21:02.334Z,40.70
2019-03-04T17:23:32.250Z,40.60
2019-03-04T17:26:02.351Z,40.70
2019-03-04T17:28:32.319Z,40.80
2019-03-04T17:31:02.461Z,40.70
2019-03-04T17:33:32.462Z,40.80
2019-03-04T17:36:02.536Z,40.70
2019-03-04T17:38:32.645Z,40.80
2019-03-04T17:41:02.813Z,40.70
2019-03-04T17:43:32.906Z,40.70
2019-03-04T17:46:02.996Z,40.80
2019-03-04T17:48:33.161Z,40.70
2019-03-04T17:51:03.454Z,40.80
2019-03-04T17:53:33.889Z,40.80
2019-03-04T17:56:04.088Z,40.80
2019-03-04T17:58:34.033Z,40.80
2019-03-04T18:01:04.410Z,40.80
2019-03-04T18:03:34.394Z,40.80
2019-03-04T18:06:04.441Z,40.80
2019-03-04T18:08:34.507Z,40.90
2019-03-04T18:11:04.644Z,40.90
2019-03-04T18:13:35.002Z,40.90
2019-03-04T18:16:05.121Z,40.90
2019-03-04T18:18:35.300Z,40.90
2019-03-04T18:21:05.326Z,40.80
2019-03-04T18:23:35.342Z,40.90
2019-03-04T18:26:09.712Z,41.00
2019-03-04T18:29:13.794Z,41.00
2019-03-04T18:32:21.257Z,41.00
2019-03-04T18:35:29.115Z,41.00
2019-03-04T18:38:31.498Z,39.70
2019-03-04T18:41:41.623Z,41.30
2019-03-04T18:44:54.227Z,41.40
2019-03-04T18:47:59.458Z,41.60
2019-03-04T18:50:29.429Z,41.70
2019-03-04T18:52:59.585Z,41.70
2019-03-04T18:55:29.786Z,41.70
2019-03-04T18:57:59.902Z,41.80
2019-03-04T19:00:29.976Z,41.60
2019-03-04T19:03:00.097Z,41.60
2019-03-04T19:05:30.327Z,41.50
2019-03-04T19:08:00.334Z,41.40
2019-03-04T19:10:30.530Z,41.40
2019-03-04T19:13:00.530Z,41.50
2019-03-04T19:15:30.594Z,41.50
2019-03-04T19:18:00.721Z,41.40
2019-03-04T19:20:30.735Z,41.30
2019-03-04T19:23:00.796Z,41.20
2019-03-04T19:25:30.795Z,41.10
2019-03-04T19:28:00.736Z,41.10
2019-03-04T19:30:37.129Z,41.10
2019-03-04T19:33:07.105Z,41.00
2019-03-04T19:35:37.153Z,41.00
2019-03-04T19:38:07.213Z,41.10
2019-03-04T19:40:37.385Z,41.00
2019-03-04T19:43:07.475Z,41.00
2019-03-04T19:45:37.998Z,40.90
2019-03-04T19:48:08.502Z,41.60
2019-03-04T19:50:38.769Z,41.00
2019-03-04T19:53:09.572Z,40.90
2019-03-04T19:55:39.688Z,40.90
2019-03-04T19:58:09.707Z,40.80
2019-03-04T20:00:39.952Z,40.80
2019-03-04T20:03:10.019Z,40.80
2019-03-04T20:05:40.366Z,40.80
2019-03-04T20:08:10.601Z,40.80
2019-03-04T20:10:40.691Z,40.80
2019-03-04T20:13:11.207Z,40.80
2019-03-04T20:15:41.523Z,40.80
2019-03-04T20:18:11.754Z,40.80
2019-03-04T20:20:42.412Z,40.80
2019-03-04T20:23:12.499Z,40.80
2019-03-04T20:25:42.842Z,40.80
2019-03-04T20:28:13.584Z,40.90
2019-03-04T20:30:43.966Z,40.90
2019-03-04T20:33:14.182Z,40.80
2019-03-04T20:35:44.522Z,40.80
2019-03-04T20:38:15.018Z,40.80
2019-03-04T20:40:45.343Z,40.80
2019-03-04T20:43:16.836Z,40.80
2019-03-04T20:45:48.442Z,40.70
2019-03-04T20:48:19.402Z,40.70
2019-03-04T20:50:50.070Z,40.70
2019-03-04T20:53:20.901Z,40.70
2019-03-04T20:55:52.194Z,40.60
2019-03-04T20:58:23.594Z,40.70
2019-03-04T21:00:57.187Z,40.60
2019-03-04T21:03:34.814Z,40.60
2019-03-04T21:06:02.822Z,40.60
2019-03-04T21:08:33.229Z,40.60
2019-03-04T21:11:03.634Z,41.20
2019-03-04T21:13:35.723Z,40.60
2019-03-04T21:16:06.017Z,40.60
2019-03-04T21:18:37.353Z,40.50
2019-03-04T21:21:08.490Z,40.60
2019-03-04T21:23:40.477Z,40.80
2019-03-04T21:26:20.463Z,40.50
2019-03-04T21:29:08.234Z,40.50
2019-03-04T21:31:45.499Z,41.20
2019-03-04T21:34:42.062Z,40.60
2019-03-04T21:37:20.460Z,40.60
2019-03-04T21:39:50.827Z,40.70
2019-03-04T21:42:28.332Z,40.70
2019-03-04T21:45:21.604Z,40.80
2019-03-04T21:47:59.114Z,40.70
2019-03-04T21:50:56.104Z,40.70
2019-03-04T21:53:31.517Z,40.70
2019-03-04T21:56:40.928Z,40.70
2019-03-04T21:59:11.039Z,40.70
2019-03-04T22:01:45.366Z,40.70
2019-03-04T22:04:15.389Z,40.70
2019-03-04T22:06:45.574Z,40.70
2019-03-04T22:09:16.547Z,40.60
2019-03-04T22:11:46.580Z,40.60
2019-03-04T22:14:16.492Z,40.60
2019-03-04T22:16:46.746Z,40.50
2019-03-04T22:19:16.885Z,40.50
2019-03-04T22:21:46.833Z,40.50
2019-03-04T22:24:17.531Z,40.40
2019-03-04T22:26:47.576Z,40.30
2019-03-04T22:29:17.657Z,40.30
2019-03-04T22:31:47.808Z,40.40
2019-03-04T22:34:17.790Z,40.30
2019-03-04T22:36:47.845Z,40.10
2019-03-04T22:39:17.864Z,40.10
2019-03-04T22:41:47.830Z,40.10
2019-03-04T22:44:17.874Z,40.10
2019-03-04T22:46:47.847Z,40.00
2019-03-04T22:49:17.876Z,40.00
2019-03-04T22:51:47.821Z,40.00
2019-03-04T22:54:17.855Z,40.00
2019-03-04T22:56:47.994Z,40.00
2019-03-04T22:59:18.037Z,40.00
2019-03-04T23:01:59.411Z,40.00
2019-03-04T23:04:58.917Z,40.00
2019-03-04T23:07:40.909Z,40.00
2019-03-04T23:10:43.365Z,40.10
2019-03-04T23:13:46.973Z,40.00
2019-03-04T23:16:19.864Z,40.00
2019-03-04T23:18:50.114Z,40.10
2019-03-04T23:21:20.042Z,40.10
2019-03-04T23:23:49.971Z,40.00
2019-03-04T23:26:21.077Z,40.00
2019-03-04T23:28:51.034Z,39.90
2019-03-04T23:31:22.491Z,40.00
2019-03-04T23:33:52.520Z,39.90
2019-03-04T23:36:22.522Z,39.90
2019-03-04T23:38:52.526Z,39.90
2019-03-04T23:41:22.569Z,39.80
2019-03-04T23:43:52.681Z,39.90
2019-03-04T23:46:22.907Z,39.90
2019-03-04T23:48:52.801Z,39.80
2019-03-04T23:51:22.758Z,39.80
2019-03-04T23:53:52.730Z,39.80
2019-03-04T23:56:22.738Z,39.80
2019-03-04T23:58:52.659Z,39.80
